Air Navigation Services of Czech Republic  
Last data update:  22.11.2017 10:58:40 UTC Česká verze
   METEO Page displayed:  22.11.2017 11:00:40 UTC  
help
METAR EDDB 221050Z 21011KT 9999 BKN024 09/07 Q1008 NOSIG=
METAR EDDC 221050Z 24010KT 210V280 9999 FEW026 SCT032 BKN045 09/05 Q1010 TEMPO 26015G25KT=
METAR EDDE 221050Z 23012KT 9999 FEW022 BKN300 09/04 Q1010 NOSIG=
METAR EDDF 221050Z 20010KT 9999 FEW016 BKN250 11/06 Q1012 NOSIG=
METAR EDDM 221050Z 25010KT CAVOK 13/03 Q1014 NOSIG=
METAR EDDN 221050Z 16005KT 110V200 CAVOK 09/05 Q1013 NOSIG=
METAR EDDP 221050Z 22017KT 9999 BKN046 10/06 Q1009 NOSIG=
METAR EDDT 221050Z 22011KT 9999 FEW018 BKN023 10/07 Q1007 NOSIG=
METAR EDQM 221050Z 22014KT 9999 SCT012 06/03 Q1011=
METAR EPBY 221030Z 15009KT 120V180 4100 -RA BR BKN003 OVC005 03/02 Q1009 =
METAR EPGD 221030Z 15012KT 1400 R29/1300U SN BR OVC002 00/M00 Q1009 =
METAR EPKK 221030Z VRB02KT 4000 BR SCT003 BKN018 06/05 Q1011 =
METAR EPKT 221030Z 23007KT 3200 BR SCT003 OVC005 07/06 Q1010 =
METAR EPLL 221030Z 11005KT 070V150 4000 -RA BR OVC004 03/02 Q1010 =
METAR EPPO 221030Z 20003KT 3300 BR OVC002 07/04 Q1008 =
METAR EPRZ 221030Z 13006KT 2400 -DZ BR OVC003 03/03 Q1012 =
METAR EPWA 221030Z 15011KT 4300 -RA BR BKN008 03/01 Q1012 NOSIG=
METAR EPWR 221030Z 23003KT 200V260 9999 BKN030 08/07 Q1010 =
METAR LHBP 221030Z 20005KT CAVOK 09/06 Q1015 NOSIG=
METAR LHSM 221015Z 25008KT CAVOK 13/07 Q1016 NOSIG=
METAR LKCV 221000Z 25013KT CAVOK 10/05 Q1012 NOSIG=
METAR LKKB 221000Z 24017KT 9999 FEW037 SCT220 10/04 Q1012 NOSIG=
METAR LKKU 221000Z 21007KT 9999 FEW033 09/07 Q1013=
METAR LKKV 221030Z 25010KT 220V290 9999 BKN015 06/04 Q1011 RMK REG QNH 1009=
METAR LKLN 221000Z AUTO 23009KT 180V310 9999 OVC020 09/05 Q1013=
SPECI LKMT 221048Z 24013KT 3000 -DZ BR BKN009 OVC015 08/06 Q1012 RMK REG QNH 1009=
METAR LKNA 221000Z 27010KT 9999 FEW016 SCT080 BKN240 08/04 Q1012 NOSIG=
METAR LKPD 220900Z 25009KT 9999 BKN027 09/06 Q1012 NOSIG =
METAR LKPR 221030Z 24011KT 9999 BKN025 08/04 Q1012 NOSIG RMK REG QNH 1009=
METAR LKTB 221030Z 22010KT 9999 FEW014 09/06 Q1013 NOSIG RMK REG QNH 1009=
METAR LKVO 221100Z 26012KT 9999 SCT032 10/05 Q1012=
METAR LOWI 221050Z VRB01KT 3000 MIFG BR SCT002 SCT300 03/03 Q1017 BECMG 9999=
METAR LOWL 221050Z 06003KT 020V100 CAVOK 09/05 Q1015 NOSIG=
METAR LOWS 221050Z 15009KT CAVOK 10/04 Q1015 NOSIG=
METAR LOWW 221050Z 29010KT 270V330 CAVOK 14/05 Q1014 NOSIG=
METAR LZIB 221030Z 29013KT CAVOK 13/05 Q1014 NOSIG=
METAR LZKZ 221030Z 27003KT 0900 R01/1300N -DZ FG OVC002 04/03 Q1014 NOSIG=
METAR LZPP 221030Z 16003KT 9999 FEW005 09/07 Q1014=
METAR LZSL 221030Z 00000KT 9000 OVC009 05/03 Q1014=
METAR LZTT 221030Z 18004KT 150V240 9999 FEW008 BKN014 03/02 Q1011 NOSIG=
METAR LZZI 221030Z 24002KT 2000 -DZ BR SCT003 OVC006 03/03 Q1013=